CTV669 WADD-WARR
Flight info
| Callsign | CTV669 |
|---|---|
| Flight time | 0h 37m |
| Altitude | 26000 |
| Route | OKANG |
| Aircraft | A320/M-SDE2E3FGHIRWY/LB1 |
Departure
| Time | 2026-05-04 07:43 |
|---|---|
| Airport | Denpasar I Gusti Ngurah Rai International Airport (WADD) |
Arrival
| Time | 2026-05-04 08:21 |
|---|---|
| Airport | Juanda International Airport (WARR) |
| Time | Latitude | Longitude | Altitude | Speed | Heading |
|---|---|---|---|---|---|
| 2026-05-04 07:27 | -8.74632 | 115.16174 | 33 ft | 0 kts | 358° |
| 2026-05-04 07:38 | -8.74700 | 115.16202 | 33 ft | 0 kts | 268° |
| 2026-05-04 07:39 | -8.74702 | 115.16172 | 21 ft | 8 kts | 267° |
| 2026-05-04 07:39 | -8.74705 | 115.16110 | 33 ft | 9 kts | 268° |
| 2026-05-04 07:39 | -8.74707 | 115.16040 | 33 ft | 12 kts | 268° |
| 2026-05-04 07:40 | -8.74711 | 115.15950 | 33 ft | 13 kts | 267° |
| 2026-05-04 07:40 | -8.74715 | 115.15853 | 33 ft | 17 kts | 267° |
| 2026-05-04 07:40 | -8.74720 | 115.15737 | 32 ft | 16 kts | 268° |
| 2026-05-04 07:40 | -8.74724 | 115.15631 | 32 ft | 14 kts | 268° |
| 2026-05-04 07:41 | -8.74728 | 115.15534 | 32 ft | 13 kts | 267° |
| 2026-05-04 07:41 | -8.74732 | 115.15446 | 32 ft | 12 kts | 266° |
| 2026-05-04 07:41 | -8.74778 | 115.15390 | 31 ft | 11 kts | 191° |
| 2026-05-04 07:41 | -8.74863 | 115.15392 | 28 ft | 12 kts | 181° |
| 2026-05-04 07:42 | -8.74896 | 115.15407 | 29 ft | 4 kts | 95° |
| 2026-05-04 07:42 | -8.74896 | 115.15441 | 29 ft | 7 kts | 88° |
| 2026-05-04 07:42 | -8.74886 | 115.15670 | 28 ft | 68 kts | 87° |
| 2026-05-04 07:42 | -8.74858 | 115.16367 | 28 ft | 127 kts | 88° |
| 2026-05-04 07:43 | -8.74824 | 115.17407 | 206 ft | 159 kts | 92° |
| 2026-05-04 07:43 | -8.74795 | 115.18546 | 886 ft | 162 kts | 90° |
| 2026-05-04 07:43 | -8.74746 | 115.19676 | 1641 ft | 161 kts | 88° |
| 2026-05-04 07:43 | -8.74357 | 115.20780 | 2095 ft | 183 kts | 52° |
| 2026-05-04 07:44 | -8.73218 | 115.21535 | 2502 ft | 215 kts | 17° |
| 2026-05-04 07:44 | -8.71651 | 115.21407 | 2918 ft | 245 kts | 339° |
| 2026-05-04 07:44 | -8.70071 | 115.20546 | 3348 ft | 270 kts | 329° |
| 2026-05-04 07:44 | -8.68493 | 115.19453 | 4080 ft | 279 kts | 326° |
| 2026-05-04 07:45 | -8.66940 | 115.18299 | 4945 ft | 282 kts | 325° |
| 2026-05-04 07:45 | -8.65354 | 115.17114 | 5809 ft | 285 kts | 326° |
| 2026-05-04 07:45 | -8.63747 | 115.15931 | 6671 ft | 287 kts | 326° |
| 2026-05-04 07:45 | -8.62109 | 115.14748 | 7458 ft | 291 kts | 327° |
| 2026-05-04 07:46 | -8.60435 | 115.13566 | 8251 ft | 296 kts | 327° |
| 2026-05-04 07:46 | -8.58730 | 115.12376 | 9026 ft | 300 kts | 327° |
| 2026-05-04 07:46 | -8.56998 | 115.11169 | 9775 ft | 305 kts | 327° |
| 2026-05-04 07:46 | -8.55222 | 115.09935 | 10231 ft | 319 kts | 327° |
| 2026-05-04 07:47 | -8.53322 | 115.08621 | 10433 ft | 343 kts | 327° |
| 2026-05-04 07:47 | -8.51309 | 115.07229 | 10833 ft | 356 kts | 327° |
| 2026-05-04 07:47 | -8.49255 | 115.05800 | 11439 ft | 361 kts | 326° |
| 2026-05-04 07:49 | -8.34267 | 114.95386 | 15725 ft | 384 kts | 325° |
| 2026-05-04 07:49 | -8.32061 | 114.93853 | 16316 ft | 386 kts | 325° |
| 2026-05-04 07:49 | -8.29843 | 114.92310 | 16892 ft | 388 kts | 325° |
| 2026-05-04 07:50 | -8.27609 | 114.90759 | 17466 ft | 391 kts | 325° |
| 2026-05-04 07:50 | -8.25363 | 114.89201 | 18020 ft | 393 kts | 325° |
| 2026-05-04 07:50 | -8.23103 | 114.87632 | 18508 ft | 395 kts | 325° |
| 2026-05-04 07:50 | -8.20833 | 114.86058 | 18973 ft | 398 kts | 325° |
| 2026-05-04 07:51 | -8.18547 | 114.84472 | 19431 ft | 400 kts | 325° |
| 2026-05-04 07:51 | -8.16246 | 114.82876 | 19879 ft | 402 kts | 325° |
| 2026-05-04 07:51 | -8.13930 | 114.81272 | 20314 ft | 405 kts | 326° |
| 2026-05-04 07:51 | -8.11602 | 114.79658 | 20739 ft | 407 kts | 326° |
| 2026-05-04 07:52 | -8.09261 | 114.78035 | 21161 ft | 410 kts | 326° |
| 2026-05-04 07:52 | -8.06907 | 114.76403 | 21579 ft | 412 kts | 326° |
| 2026-05-04 07:52 | -8.04537 | 114.74760 | 21994 ft | 414 kts | 326° |
| 2026-05-04 07:52 | -8.02154 | 114.73108 | 22410 ft | 417 kts | 326° |
| 2026-05-04 07:53 | -7.99757 | 114.71448 | 22804 ft | 419 kts | 326° |
| 2026-05-04 07:54 | -7.87650 | 114.55337 | 25128 ft | 436 kts | 285° |
| 2026-05-04 07:55 | -7.86870 | 114.52376 | 25456 ft | 438 kts | 285° |
| 2026-05-04 07:55 | -7.86086 | 114.49405 | 25754 ft | 440 kts | 285° |
| 2026-05-04 07:55 | -7.85298 | 114.46417 | 25846 ft | 437 kts | 285° |
| 2026-05-04 07:55 | -7.84522 | 114.43471 | 25874 ft | 439 kts | 285° |
| 2026-05-04 07:56 | -7.83731 | 114.40470 | 25870 ft | 446 kts | 285° |
| 2026-05-04 07:56 | -7.82944 | 114.37480 | 25875 ft | 448 kts | 285° |
| 2026-05-04 07:56 | -7.82132 | 114.34394 | 25875 ft | 449 kts | 285° |
| 2026-05-04 07:56 | -7.81341 | 114.31394 | 25873 ft | 449 kts | 285° |
| 2026-05-04 07:57 | -7.80537 | 114.28354 | 25873 ft | 449 kts | 285° |
| 2026-05-04 07:57 | -7.79732 | 114.25307 | 25874 ft | 449 kts | 285° |
| 2026-05-04 07:57 | -7.78926 | 114.22260 | 25875 ft | 450 kts | 285° |
| 2026-05-04 07:57 | -7.78122 | 114.19214 | 25873 ft | 449 kts | 285° |
| 2026-05-04 07:58 | -7.77319 | 114.16171 | 25874 ft | 449 kts | 285° |
| 2026-05-04 07:58 | -7.76514 | 114.13125 | 25873 ft | 449 kts | 285° |
| 2026-05-04 07:58 | -7.75713 | 114.10080 | 25868 ft | 449 kts | 284° |
| 2026-05-04 07:58 | -7.75210 | 114.06977 | 25868 ft | 449 kts | 274° |
| 2026-05-04 07:59 | -7.75066 | 114.03831 | 25867 ft | 450 kts | 272° |
| 2026-05-04 07:59 | -7.74931 | 114.00682 | 25869 ft | 450 kts | 272° |
| 2026-05-04 07:59 | -7.74796 | 113.97534 | 25867 ft | 450 kts | 273° |
| 2026-05-04 07:59 | -7.74656 | 113.94380 | 25866 ft | 450 kts | 273° |
| 2026-05-04 08:00 | -7.74514 | 113.91234 | 25865 ft | 450 kts | 273° |
| 2026-05-04 08:00 | -7.74374 | 113.88082 | 25863 ft | 450 kts | 273° |
| 2026-05-04 08:00 | -7.74234 | 113.84930 | 25863 ft | 450 kts | 273° |
| 2026-05-04 08:02 | -7.73250 | 113.62876 | 25867 ft | 450 kts | 273° |
| 2026-05-04 08:02 | -7.73108 | 113.59727 | 25821 ft | 449 kts | 273° |
| 2026-05-04 08:02 | -7.72966 | 113.56583 | 25177 ft | 448 kts | 273° |
| 2026-05-04 08:03 | -7.72636 | 113.53474 | 24551 ft | 445 kts | 281° |
| 2026-05-04 08:03 | -7.71908 | 113.50455 | 23965 ft | 442 kts | 285° |
| 2026-05-04 08:03 | -7.71155 | 113.47511 | 23405 ft | 438 kts | 285° |
| 2026-05-04 08:03 | -7.70399 | 113.44546 | 22753 ft | 435 kts | 285° |
| 2026-05-04 08:04 | -7.69646 | 113.41605 | 22143 ft | 431 kts | 284° |
| 2026-05-04 08:04 | -7.68902 | 113.38699 | 21428 ft | 426 kts | 284° |
| 2026-05-04 08:04 | -7.68166 | 113.35821 | 20729 ft | 422 kts | 284° |
| 2026-05-04 08:04 | -7.67437 | 113.32972 | 20049 ft | 418 kts | 284° |
| 2026-05-04 08:05 | -7.66712 | 113.30146 | 19392 ft | 414 kts | 284° |
| 2026-05-04 08:05 | -7.65993 | 113.27349 | 18746 ft | 411 kts | 284° |
| 2026-05-04 08:05 | -7.65287 | 113.24573 | 18118 ft | 407 kts | 283° |
| 2026-05-04 08:05 | -7.64660 | 113.21801 | 17405 ft | 404 kts | 281° |
| 2026-05-04 08:06 | -7.64113 | 113.19036 | 16732 ft | 401 kts | 280° |
| 2026-05-04 08:06 | -7.63610 | 113.16286 | 16098 ft | 397 kts | 280° |
| 2026-05-04 08:06 | -7.63120 | 113.13558 | 15473 ft | 394 kts | 280° |
| 2026-05-04 08:06 | -7.62629 | 113.10856 | 14863 ft | 391 kts | 280° |
| 2026-05-04 08:08 | -7.59153 | 112.93067 | 12059 ft | 327 kts | 281° |
| 2026-05-04 08:08 | -7.58723 | 112.90867 | 11939 ft | 313 kts | 281° |
| 2026-05-04 08:10 | -7.55422 | 112.73961 | 9191 ft | 301 kts | 281° |
| 2026-05-04 08:11 | -7.55019 | 112.71904 | 8846 ft | 298 kts | 281° |
| 2026-05-04 08:11 | -7.54221 | 112.67824 | 8157 ft | 295 kts | 281° |
| 2026-05-04 08:11 | -7.53829 | 112.65804 | 7814 ft | 293 kts | 281° |
| 2026-05-04 08:12 | -7.53443 | 112.63820 | 7483 ft | 291 kts | 281° |
| 2026-05-04 08:12 | -7.53053 | 112.61826 | 7131 ft | 289 kts | 281° |
| 2026-05-04 08:12 | -7.52663 | 112.59841 | 6794 ft | 287 kts | 281° |
| 2026-05-04 08:12 | -7.52273 | 112.57873 | 6450 ft | 286 kts | 280° |
| 2026-05-04 08:13 | -7.51884 | 112.55915 | 6096 ft | 284 kts | 282° |
| 2026-05-04 08:13 | -7.51153 | 112.54081 | 5729 ft | 283 kts | 303° |
| 2026-05-04 08:13 | -7.49789 | 112.52681 | 5362 ft | 281 kts | 327° |
| 2026-05-04 08:13 | -7.48007 | 112.51943 | 4998 ft | 277 kts | 351° |
| 2026-05-04 08:14 | -7.46741 | 112.51874 | 4754 ft | 274 kts | 7° |
| 2026-05-04 08:14 | -7.44901 | 112.52163 | 4627 ft | 262 kts | 10° |
| 2026-05-04 08:14 | -7.43141 | 112.52446 | 4494 ft | 251 kts | 10° |
| 2026-05-04 08:16 | -7.34650 | 112.57288 | 3733 ft | 201 kts | 86° |
| 2026-05-04 08:16 | -7.34734 | 112.58691 | 3499 ft | 201 kts | 99° |
| 2026-05-04 08:16 | -7.34963 | 112.60090 | 3251 ft | 204 kts | 99° |
| 2026-05-04 08:17 | -7.35194 | 112.61511 | 2995 ft | 207 kts | 99° |
| 2026-05-04 08:17 | -7.35428 | 112.62948 | 2728 ft | 209 kts | 99° |
| 2026-05-04 08:17 | -7.35664 | 112.64401 | 2456 ft | 211 kts | 99° |
| 2026-05-04 08:17 | -7.35902 | 112.65868 | 2184 ft | 213 kts | 99° |
| 2026-05-04 08:19 | -7.37321 | 112.74552 | 576 ft | 149 kts | 98° |
| 2026-05-04 08:19 | -7.37484 | 112.75559 | 370 ft | 143 kts | 97° |
| 2026-05-04 08:20 | -7.37636 | 112.76546 | 212 ft | 141 kts | 98° |
| 2026-05-04 08:20 | -7.37800 | 112.77518 | 43 ft | 140 kts | 97° |
| 2026-05-04 08:20 | -7.37937 | 112.78398 | 9 ft | 114 kts | 98° |
| 2026-05-04 08:20 | -7.38035 | 112.79014 | 10 ft | 64 kts | 99° |
| 2026-05-04 08:21 | -7.38085 | 112.79322 | 10 ft | 36 kts | 99° |
| 2026-05-04 08:21 | -7.38106 | 112.79527 | 9 ft | 24 kts | 89° |
| 2026-05-04 08:21 | -7.38077 | 112.79665 | 10 ft | 17 kts | 68° |
| 2026-05-04 08:21 | -7.38015 | 112.79766 | 9 ft | 18 kts | 28° |
| 2026-05-04 08:22 | -7.37922 | 112.79786 | 9 ft | 12 kts | 9° |
| 2026-05-04 08:22 | -7.37833 | 112.79801 | 9 ft | 12 kts | 9° |
| 2026-05-04 08:24 | -7.37698 | 112.79574 | 9 ft | 7 kts | 279° |
| 2026-05-04 08:24 | -7.37683 | 112.79534 | 10 ft | 6 kts | 324° |
| 2026-05-04 08:24 | -7.37647 | 112.79525 | 9 ft | 5 kts | 2° |
| 2026-05-04 08:24 | -7.37619 | 112.79530 | 9 ft | 4 kts | 9° |
| 2026-05-04 08:25 | -7.37602 | 112.79533 | 11 ft | 0 kts | 9° |
| 2026-05-04 08:25 | -7.37600 | 112.79533 | 11 ft | 1 kts | 10° |
| 2026-05-04 08:25 | -7.37597 | 112.79534 | 10 ft | 0 kts | 10° |